createdAt,value
2016-04-12T00:00:22.329Z,57.64
2016-04-12T00:01:05.284Z,57.51
2016-04-12T00:01:48.256Z,57.6
2016-04-12T00:02:31.228Z,57.6
2016-04-12T00:03:14.150Z,57.6
2016-04-12T00:03:57.105Z,57.6
2016-04-12T00:04:40.061Z,57.6
2016-04-12T00:05:22.998Z,57.92
2016-04-12T00:06:05.969Z,57.92
2016-04-12T00:06:48.910Z,57.54
2016-04-12T00:07:31.850Z,57.45
2016-04-12T00:08:14.792Z,57.35
2016-04-12T00:08:57.301Z,57.45
2016-04-12T00:09:40.242Z,57.45
2016-04-12T00:10:23.195Z,57.35
2016-04-12T00:11:06.135Z,57.64
2016-04-12T00:11:49.091Z,57.64
2016-04-12T00:12:31.875Z,57.35
2016-04-12T00:13:14.828Z,57.35
2016-04-12T00:13:57.784Z,57.64
2016-04-12T00:14:40.724Z,57.26
2016-04-12T00:15:23.677Z,57.54
2016-04-12T00:16:06.633Z,57.54
2016-04-12T00:16:49.557Z,57.35
2016-04-12T00:17:32.528Z,57.35
2016-04-12T00:18:15.466Z,57.26
2016-04-12T00:18:58.406Z,57.73
2016-04-12T00:19:41.346Z,57.73
2016-04-12T00:20:24.299Z,57.64
2016-04-12T00:21:07.271Z,57.73
2016-04-12T00:21:50.226Z,57.92
2016-04-12T00:22:33.183Z,57.89
2016-04-12T00:23:16.136Z,57.82
2016-04-12T00:23:59.107Z,57.82
2016-04-12T00:24:42.047Z,57.89
2016-04-12T00:25:24.985Z,57.73
2016-04-12T00:26:07.971Z,57.92
2016-04-12T00:26:50.928Z,57.7
2016-04-12T00:27:33.898Z,57.45
2016-04-12T00:28:16.836Z,57.7
2016-04-12T00:28:59.808Z,57.82
2016-04-12T00:29:42.749Z,58.21
2016-04-12T00:30:25.700Z,57.8
2016-04-12T00:31:08.546Z,57.89
2016-04-12T00:31:51.213Z,57.8
2016-04-12T00:32:33.845Z,58.47
2016-04-12T00:33:16.798Z,58.37
2016-04-12T00:33:59.738Z,58.28
2016-04-12T00:34:42.678Z,58.28
2016-04-12T00:35:25.631Z,58.37
2016-04-12T00:36:08.587Z,58.18
2016-04-12T00:36:51.559Z,58.18
2016-04-12T00:37:34.499Z,58.28
2016-04-12T00:38:16.671Z,58.56
2016-04-12T00:38:59.612Z,58.18
2016-04-12T00:39:42.567Z,58.18
2016-04-12T00:40:25.504Z,58.18
2016-04-12T00:41:08.461Z,58.65
2016-04-12T00:41:51.431Z,58.08
2016-04-12T00:42:34.373Z,58.28
2016-04-12T00:43:17.342Z,58.65
2016-04-12T00:44:00.328Z,58.47
2016-04-12T00:44:43.283Z,58.94
2016-04-12T00:45:26.221Z,58.84
2016-04-12T00:46:09.178Z,59.23
2016-04-12T00:46:52.133Z,59.42
2016-04-12T00:47:35.073Z,59.32
2016-04-12T00:48:18.042Z,58.84
2016-04-12T00:49:00.997Z,58.75
2016-04-12T00:49:43.939Z,58.65
2016-04-12T00:50:26.876Z,58.37
2016-04-12T00:51:09.831Z,58.56
2016-04-12T00:51:52.772Z,58.47
2016-04-12T00:52:35.774Z,58.28
2016-04-12T00:53:18.727Z,58.28
2016-04-12T00:54:01.683Z,58.56
2016-04-12T00:54:44.624Z,58.47
2016-04-12T00:55:27.577Z,58.56
2016-04-12T00:56:10.533Z,58.37
2016-04-12T00:56:53.472Z,58.56
2016-04-12T00:57:36.427Z,58.28
2016-04-12T00:58:19.365Z,58.18
2016-04-12T00:59:02.338Z,58.18
2016-04-12T00:59:45.293Z,58.47
2016-04-12T01:00:28.230Z,58.65
2016-04-12T01:01:11.170Z,58.56
2016-04-12T01:01:53.955Z,58.18
2016-04-12T01:02:36.988Z,58.28
2016-04-12T01:03:19.941Z,58.37
2016-04-12T01:04:02.898Z,58.65
2016-04-12T01:04:45.853Z,58.47
2016-04-12T01:05:28.790Z,58.37
2016-04-12T01:06:11.746Z,58.47
2016-04-12T01:06:54.702Z,58.56
2016-04-12T01:07:37.674Z,58.37
2016-04-12T01:08:20.471Z,58.47
2016-04-12T01:09:03.442Z,58.37
2016-04-12T01:09:46.382Z,58.28
2016-04-12T01:10:29.335Z,58.47
2016-04-12T01:11:12.292Z,58.47
2016-04-12T01:11:55.232Z,58.84
2016-04-12T01:12:38.187Z,59.13
2016-04-12T01:13:21.140Z,59.23
2016-04-12T01:14:04.127Z,59.13
2016-04-12T01:14:47.067Z,59.13
2016-04-12T01:15:30.036Z,59.42
2016-04-12T01:16:12.992Z,59.32
2016-04-12T01:16:56.089Z,59.42
2016-04-12T01:17:39.247Z,59.32
2016-04-12T01:18:22.185Z,59.42
2016-04-12T01:19:05.141Z,59.23
2016-04-12T01:19:48.081Z,59.42
2016-04-12T01:20:31.034Z,59.23
2016-04-12T01:21:13.989Z,58.47
2016-04-12T01:21:56.930Z,58.65
2016-04-12T01:22:39.886Z,58.37
2016-04-12T01:23:22.839Z,58.47
2016-04-12T01:24:05.795Z,58.65
2016-04-12T01:24:48.750Z,58.65
2016-04-12T01:25:31.719Z,58.47
2016-04-12T01:26:14.675Z,58.84
2016-04-12T01:26:57.616Z,59.03
2016-04-12T01:27:39.571Z,59.32
2016-04-12T01:28:22.508Z,58.94
2016-04-12T01:29:05.465Z,59.03
2016-04-12T01:29:48.405Z,58.94
2016-04-12T01:30:31.358Z,58.94
2016-04-12T01:31:14.313Z,59.42
2016-04-12T01:31:57.301Z,59.23
2016-04-12T01:32:40.272Z,59.42
2016-04-12T01:33:23.210Z,59.8
2016-04-12T01:34:06.165Z,59.8
2016-04-12T01:34:49.106Z,59.8
2016-04-12T01:35:32.059Z,60.27
2016-04-12T01:36:14.999Z,59.99
2016-04-12T01:36:57.798Z,60.15
2016-04-12T01:37:40.785Z,60.24
2016-04-12T01:38:23.723Z,60.82
2016-04-12T01:39:06.679Z,60.72
2016-04-12T01:39:49.634Z,60.63
2016-04-12T01:40:32.587Z,60.82
2016-04-12T01:41:15.543Z,61.19
2016-04-12T01:41:58.515Z,60.72
2016-04-12T01:42:41.455Z,61.29
2016-04-12T01:43:24.392Z,60.91
2016-04-12T01:44:07.349Z,61.48
2016-04-12T01:44:50.289Z,61.38
2016-04-12T01:45:33.245Z,61.48
2016-04-12T01:46:16.198Z,61.67
2016-04-12T01:46:59.169Z,61.48
2016-04-12T01:47:42.250Z,61.29
2016-04-12T01:48:25.047Z,60.91
2016-04-12T01:49:07.987Z,61.19
2016-04-12T01:49:50.958Z,61.19
2016-04-12T01:50:33.914Z,61
2016-04-12T01:51:16.867Z,61.29
2016-04-12T01:51:59.808Z,61.19
2016-04-12T01:52:41.747Z,60.72
2016-04-12T01:53:24.544Z,61
2016-04-12T01:54:07.500Z,61.29
2016-04-12T01:54:50.456Z,60.91
2016-04-12T01:55:33.413Z,61.29
2016-04-12T01:56:16.366Z,61.48
2016-04-12T01:56:59.306Z,61.19
2016-04-12T01:57:42.261Z,61.67
2016-04-12T01:58:25.214Z,61.19
2016-04-12T01:59:08.154Z,61.48
2016-04-12T01:59:51.095Z,61.58
2016-04-12T02:00:34.051Z,61.67
2016-04-12T02:01:17.019Z,61.67
2016-04-12T02:01:59.991Z,61.48
2016-04-12T02:02:43.072Z,61.48
2016-04-12T02:03:26.010Z,61.67
2016-04-12T02:04:08.949Z,61.96
2016-04-12T02:04:51.937Z,61.58
2016-04-12T02:05:34.892Z,62.15
2016-04-12T02:06:17.876Z,62.24
2016-04-12T02:07:00.832Z,62.72
2016-04-12T02:07:43.788Z,62.72
2016-04-12T02:08:26.726Z,62.72
2016-04-12T02:09:09.665Z,62.81
2016-04-12T02:09:52.621Z,62.81
2016-04-12T02:10:35.577Z,61.96
2016-04-12T02:11:18.514Z,61.86
2016-04-12T02:12:01.470Z,62.05
2016-04-12T02:12:44.426Z,62.24
2016-04-12T02:13:27.379Z,62.05
2016-04-12T02:14:10.336Z,62.15
2016-04-12T02:14:53.275Z,61.77
2016-04-12T02:15:36.216Z,61.96
2016-04-12T02:16:19.169Z,61.77
2016-04-12T02:17:02.203Z,62.05
2016-04-12T02:17:45.284Z,62.24
2016-04-12T02:18:28.237Z,61.86
2016-04-12T02:19:11.193Z,62.34
2016-04-12T02:19:54.133Z,62.05
2016-04-12T02:20:37.089Z,61.86
2016-04-12T02:21:19.011Z,62.05
2016-04-12T02:22:01.967Z,61.96
2016-04-12T02:22:44.922Z,61.77
2016-04-12T02:23:27.875Z,61.96
2016-04-12T02:24:10.847Z,62.24
2016-04-12T02:24:53.787Z,62.05
2016-04-12T02:25:36.743Z,61.96
2016-04-12T02:26:19.696Z,62.05
2016-04-12T02:27:02.636Z,62.05
2016-04-12T02:27:45.623Z,61.86
2016-04-12T02:28:28.560Z,61.48
2016-04-12T02:29:11.516Z,61.19
2016-04-12T02:29:54.472Z,61.58
2016-04-12T02:30:37.427Z,61.48
2016-04-12T02:31:20.396Z,61.48
2016-04-12T02:32:03.384Z,61.67
2016-04-12T02:32:46.371Z,61.67
2016-04-12T02:33:29.324Z,61.48
2016-04-12T02:34:12.311Z,61.48
2016-04-12T02:34:55.268Z,61.1
2016-04-12T02:35:38.192Z,60.91
2016-04-12T02:36:21.130Z,61.29
2016-04-12T02:37:04.085Z,61.1
2016-04-12T02:37:47.041Z,61.1
2016-04-12T02:38:30.010Z,61.38
2016-04-12T02:39:12.949Z,61.77
2016-04-12T02:39:55.921Z,61.67
2016-04-12T02:40:38.862Z,61.48
2016-04-12T02:41:21.815Z,61.38
2016-04-12T02:42:04.614Z,61.67
2016-04-12T02:42:47.585Z,61.58
2016-04-12T02:43:30.523Z,61.58
2016-04-12T02:44:13.495Z,61.58
2016-04-12T02:44:56.435Z,61.48
2016-04-12T02:45:39.390Z,61.67
2016-04-12T02:46:22.343Z,61.67
2016-04-12T02:47:05.425Z,61.58
2016-04-12T02:47:48.473Z,61.29
2016-04-12T02:48:31.255Z,61.38
2016-04-12T02:49:14.211Z,61.38
2016-04-12T02:49:57.167Z,61.58
2016-04-12T02:50:39.325Z,61.86
2016-04-12T02:51:22.294Z,61.58
2016-04-12T02:52:05.219Z,62.05
2016-04-12T02:52:48.175Z,62.15
2016-04-12T02:53:31.112Z,62.15
2016-04-12T02:54:14.083Z,62.15
2016-04-12T02:54:57.055Z,62.24
2016-04-12T02:55:40.011Z,62.43
2016-04-12T02:56:22.964Z,62.91
2016-04-12T02:57:04.872Z,62.81
2016-04-12T02:57:47.860Z,62.62
2016-04-12T02:58:30.797Z,62.81
2016-04-12T02:59:13.752Z,62.72
2016-04-12T02:59:56.693Z,62.43
2016-04-12T03:00:39.680Z,62.05
2016-04-12T03:01:22.602Z,62.34
2016-04-12T03:02:05.590Z,61.96
2016-04-12T03:02:48.482Z,61.96
2016-04-12T03:03:31.467Z,62.05
2016-04-12T03:04:14.423Z,61.77
2016-04-12T03:04:57.410Z,62.05
2016-04-12T03:05:40.350Z,62.34
2016-04-12T03:06:23.287Z,62.15
2016-04-12T03:07:06.228Z,62.81
2016-04-12T03:07:49.199Z,62.43
2016-04-12T03:08:32.137Z,62.53
2016-04-12T03:09:15.092Z,63.01
2016-04-12T03:09:58.032Z,63.39
2016-04-12T03:10:41.004Z,63.2
2016-04-12T03:11:23.957Z,63.29
2016-04-12T03:12:06.945Z,63.29
2016-04-12T03:12:49.885Z,63.57
2016-04-12T03:13:32.838Z,63.48
2016-04-12T03:14:15.778Z,63.76
2016-04-12T03:14:58.750Z,63.76
2016-04-12T03:15:41.689Z,63.96
2016-04-12T03:16:24.658Z,64.34
2016-04-12T03:17:07.536Z,64.15
2016-04-12T03:17:50.554Z,63.96
2016-04-12T03:18:33.508Z,64.11
2016-04-12T03:19:16.478Z,64.31
2016-04-12T03:19:59.467Z,64.11
2016-04-12T03:20:42.407Z,64.34
2016-04-12T03:21:25.376Z,64.21
2016-04-12T03:22:08.300Z,64.31
2016-04-12T03:22:51.256Z,64.31
2016-04-12T03:23:34.193Z,64.31
2016-04-12T03:24:17.164Z,64.21
2016-04-12T03:25:00.120Z,64.21
2016-04-12T03:25:43.076Z,64.4
2016-04-12T03:26:26.014Z,64.21
2016-04-12T03:27:08.969Z,64.11
2016-04-12T03:27:51.925Z,64.69
2016-04-12T03:28:34.865Z,64.5
2016-04-12T03:29:17.818Z,64.69
2016-04-12T03:30:00.774Z,64.69
2016-04-12T03:30:43.761Z,64.5
2016-04-12T03:31:26.746Z,64.4
2016-04-12T03:32:09.763Z,64.4
2016-04-12T03:32:52.657Z,64.5
2016-04-12T03:33:35.597Z,64.31
2016-04-12T03:34:18.597Z,64.4
2016-04-12T03:35:01.538Z,64.31
2016-04-12T03:35:44.509Z,64.31
2016-04-12T03:36:27.462Z,64.24
2016-04-12T03:37:10.262Z,64.02
2016-04-12T03:37:53.202Z,64.24
2016-04-12T03:38:36.158Z,64.24
2016-04-12T03:39:19.096Z,63.86
2016-04-12T03:40:02.068Z,63.96
2016-04-12T03:40:45.007Z,63.67
2016-04-12T03:41:27.945Z,63.29
2016-04-12T03:42:10.901Z,63.48
2016-04-12T03:42:53.840Z,63.48
2016-04-12T03:43:36.796Z,63.48
2016-04-12T03:44:19.749Z,63.01
2016-04-12T03:45:02.690Z,62.91
2016-04-12T03:45:45.645Z,62.81
2016-04-12T03:46:28.598Z,62.53
2016-04-12T03:47:11.757Z,62.72
2016-04-12T03:47:55.056Z,62.72
2016-04-12T03:48:38.091Z,62.81
2016-04-12T03:49:21.044Z,61.86
2016-04-12T03:50:03.984Z,62.15
2016-04-12T03:50:46.939Z,61.96
2016-04-12T03:51:29.892Z,62.05
2016-04-12T03:52:12.864Z,62.24
2016-04-12T03:52:55.820Z,62.05
2016-04-12T03:53:38.776Z,61.38
2016-04-12T03:54:21.730Z,62.05
2016-04-12T03:55:04.670Z,61.86
2016-04-12T03:55:47.641Z,62.24
2016-04-12T03:56:30.578Z,62.05
2016-04-12T03:57:13.534Z,62.24
2016-04-12T03:57:56.490Z,62.34
2016-04-12T03:58:39.462Z,62.34
2016-04-12T03:59:22.415Z,62.24
2016-04-12T04:00:05.371Z,61.77
2016-04-12T04:00:48.327Z,61.86
2016-04-12T04:01:31.295Z,61.96
2016-04-12T04:02:14.251Z,61.86
2016-04-12T04:02:57.441Z,61.96
2016-04-12T04:03:40.397Z,62.34
2016-04-12T04:04:23.335Z,62.62
2016-04-12T04:05:06.306Z,62.53
2016-04-12T04:05:49.277Z,62.34
2016-04-12T04:06:32.230Z,62.81
2016-04-12T04:07:15.185Z,62.72
2016-04-12T04:07:58.110Z,63.01
2016-04-12T04:08:41.083Z,62.91
2016-04-12T04:09:24.036Z,62.62
2016-04-12T04:10:07.007Z,62.81
2016-04-12T04:10:49.963Z,62.53
2016-04-12T04:11:32.916Z,62.53
2016-04-12T04:12:15.856Z,62.72
2016-04-12T04:12:58.812Z,62.34
2016-04-12T04:13:41.752Z,62.81
2016-04-12T04:14:24.705Z,62.43
2016-04-12T04:15:07.707Z,62.81
2016-04-12T04:15:50.632Z,62.53
2016-04-12T04:16:33.585Z,62.43
2016-04-12T04:17:16.572Z,62.43
2016-04-12T04:17:58.545Z,62.43
2016-04-12T04:18:41.484Z,62.72
2016-04-12T04:19:24.453Z,62.72
2016-04-12T04:20:07.425Z,63.01
2016-04-12T04:20:50.380Z,62.81
2016-04-12T04:21:33.348Z,62.72
2016-04-12T04:22:16.289Z,62.53
2016-04-12T04:22:59.245Z,62.72
2016-04-12T04:23:42.200Z,62.62
2016-04-12T04:24:25.153Z,62.53
2016-04-12T04:25:08.109Z,63.01
2016-04-12T04:25:51.081Z,62.81
2016-04-12T04:26:34.034Z,63.1
2016-04-12T04:27:16.975Z,63.29
2016-04-12T04:27:59.946Z,63.01
2016-04-12T04:28:42.886Z,62.91
2016-04-12T04:29:25.855Z,62.91
2016-04-12T04:30:08.811Z,62.62
2016-04-12T04:30:51.782Z,62.91
2016-04-12T04:31:34.719Z,62.62
2016-04-12T04:32:17.675Z,62.53
2016-04-12T04:33:00.913Z,62.72
2016-04-12T04:33:43.868Z,62.62
2016-04-12T04:34:26.805Z,62.53
2016-04-12T04:35:08.980Z,62.34
2016-04-12T04:35:51.951Z,62.43
2016-04-12T04:36:34.920Z,62.53
2016-04-12T04:37:17.846Z,62.43
2016-04-12T04:38:00.785Z,62.43
2016-04-12T04:38:43.726Z,62.72
2016-04-12T04:39:26.679Z,62.34
2016-04-12T04:40:09.619Z,62.34
2016-04-12T04:40:52.574Z,62.34
2016-04-12T04:41:35.527Z,62.56
2016-04-12T04:42:18.499Z,62.43
2016-04-12T04:43:01.440Z,62.72
2016-04-12T04:43:44.379Z,62.62
2016-04-12T04:44:27.317Z,63.29
2016-04-12T04:45:10.273Z,63.29
2016-04-12T04:45:53.073Z,63.76
2016-04-12T04:46:36.010Z,63.39
2016-04-12T04:47:18.965Z,63.48
2016-04-12T04:48:01.812Z,63.39
2016-04-12T04:48:44.753Z,63.29
2016-04-12T04:49:27.706Z,63.29
2016-04-12T04:50:10.646Z,63.48
2016-04-12T04:50:53.617Z,64.05
2016-04-12T04:51:36.570Z,63.86
2016-04-12T04:52:19.526Z,64.05
2016-04-12T04:53:02.466Z,64.05
2016-04-12T04:53:45.407Z,63.67
2016-04-12T04:54:28.376Z,63.39
2016-04-12T04:55:11.347Z,63.29
2016-04-12T04:55:54.318Z,63.2
2016-04-12T04:56:37.274Z,63.29
2016-04-12T04:57:20.227Z,63.39
2016-04-12T04:58:03.166Z,63.1
2016-04-12T04:58:46.123Z,63.48
2016-04-12T04:59:28.295Z,63.48
2016-04-12T05:00:11.219Z,63.39
2016-04-12T05:00:54.160Z,63.48
2016-04-12T05:01:37.100Z,63.2
2016-04-12T05:02:20.053Z,63.29
2016-04-12T05:03:03.118Z,63.39
2016-04-12T05:03:46.058Z,63.29
2016-04-12T05:04:28.996Z,63.76
2016-04-12T05:05:11.952Z,63.86
2016-04-12T05:05:54.908Z,63.39
2016-04-12T05:06:37.847Z,63.2
2016-04-12T05:07:20.816Z,63.57
2016-04-12T05:08:03.600Z,63.2
2016-04-12T05:08:46.400Z,63.57
2016-04-12T05:09:29.369Z,63.29
2016-04-12T05:10:12.325Z,63.57
2016-04-12T05:10:55.321Z,63.2
2016-04-12T05:11:38.261Z,63.48
2016-04-12T05:12:21.214Z,63.57
2016-04-12T05:13:06.921Z,63.39
2016-04-12T05:13:49.861Z,63.48
2016-04-12T05:14:32.829Z,63.48
2016-04-12T05:15:15.769Z,63.29
2016-04-12T05:15:58.710Z,63.39
2016-04-12T05:16:41.681Z,62.85
2016-04-12T05:17:24.619Z,62.85
2016-04-12T05:18:07.700Z,63.13
2016-04-12T05:18:50.639Z,62.75
2016-04-12T05:19:33.608Z,62.27
2016-04-12T05:20:16.548Z,62.75
2016-04-12T05:20:59.520Z,62.18
2016-04-12T05:21:42.475Z,62.65
2016-04-12T05:22:25.444Z,62.46
2016-04-12T05:23:08.385Z,62.56
2016-04-12T05:23:51.325Z,62.56
2016-04-12T05:24:34.325Z,62.37
2016-04-12T05:25:17.297Z,62.85
2016-04-12T05:26:00.269Z,62.37
2016-04-12T05:26:43.208Z,62.46
2016-04-12T05:27:26.177Z,62.56
2016-04-12T05:28:09.164Z,62.65
2016-04-12T05:28:52.119Z,62.85
2016-04-12T05:29:35.072Z,62.65
2016-04-12T05:30:18.044Z,62.75
2016-04-12T05:31:01.000Z,62.85
2016-04-12T05:31:43.940Z,62.46
2016-04-12T05:32:26.877Z,62.18
2016-04-12T05:33:09.833Z,62.18
2016-04-12T05:33:52.773Z,61.8
2016-04-12T05:34:35.757Z,62.18
2016-04-12T05:35:19.027Z,61.9
2016-04-12T05:36:03.810Z,62.18
2016-04-12T05:36:49.922Z,61.9
2016-04-12T05:37:33.672Z,61.9
2016-04-12T05:38:16.613Z,61.9
2016-04-12T05:38:59.584Z,61.9
2016-04-12T05:39:42.368Z,61.7
2016-04-12T05:40:25.321Z,61.7
2016-04-12T05:41:08.277Z,62.18
2016-04-12T05:41:53.295Z,62.08
2016-04-12T05:42:36.264Z,61.8
2016-04-12T05:43:19.360Z,61.99
2016-04-12T05:44:02.753Z,61.61
2016-04-12T05:44:46.726Z,61.8
2016-04-12T05:45:30.429Z,61.7
2016-04-12T05:46:13.822Z,61.32
2016-04-12T05:46:56.793Z,61.51
2016-04-12T05:47:39.733Z,62.08
2016-04-12T05:48:22.405Z,61.8
2016-04-12T05:49:05.361Z,61.22
2016-04-12T05:49:48.317Z,61.61
2016-04-12T05:50:31.614Z,61.7
2016-04-12T05:51:14.600Z,61.51
2016-04-12T05:51:58.041Z,61.42
2016-04-12T05:52:42.341Z,60.94
2016-04-12T05:53:26.591Z,61.16
2016-04-12T05:54:12.062Z,61.25
2016-04-12T05:54:56.689Z,60.78
2016-04-12T05:55:39.911Z,60.4
2016-04-12T05:56:23.958Z,60.59
2016-04-12T05:57:08.367Z,60.3
2016-04-12T05:57:52.400Z,60.49
2016-04-12T05:58:39.778Z,60.69
2016-04-12T05:59:26.810Z,60.21
2016-04-12T06:00:11.469Z,60.49
2016-04-12T06:00:55.471Z,60.59
2016-04-12T06:01:39.302Z,60.02
2016-04-12T06:02:23.771Z,60.3
2016-04-12T06:03:07.758Z,60.02
2016-04-12T06:03:51.652Z,60.21
2016-04-12T06:04:35.714Z,60.11
2016-04-12T06:05:19.498Z,60.21
2016-04-12T06:06:02.875Z,60.02
2016-04-12T06:06:45.988Z,60.11
2016-04-12T06:07:28.254Z,60.02
2016-04-12T06:08:11.287Z,59.74
2016-04-12T06:08:54.259Z,59.83
2016-04-12T06:09:37.196Z,59.92
2016-04-12T06:10:20.152Z,59.92
2016-04-12T06:11:03.107Z,60.11
2016-04-12T06:11:46.063Z,59.35
2016-04-12T06:12:29.017Z,59.83
2016-04-12T06:13:11.972Z,59.92
2016-04-12T06:13:55.037Z,60.11
2016-04-12T06:14:38.318Z,60.11
2016-04-12T06:15:21.321Z,60.3
2016-04-12T06:16:04.278Z,60.3
2016-04-12T06:16:47.217Z,60.3
2016-04-12T06:17:30.233Z,60.49
2016-04-12T06:18:13.220Z,59.92
2016-04-12T06:18:56.192Z,59.92
2016-04-12T06:19:39.147Z,59.92
2016-04-12T06:20:22.116Z,60.4
2016-04-12T06:21:05.072Z,60.4
2016-04-12T06:21:48.028Z,60.02
2016-04-12T06:22:30.981Z,59.92
2016-04-12T06:23:13.922Z,60.4
2016-04-12T06:23:56.877Z,59.54
2016-04-12T06:24:39.833Z,59.92
2016-04-12T06:25:22.802Z,59.45
2016-04-12T06:26:05.773Z,59.26
2016-04-12T06:26:48.572Z,59.09
2016-04-12T06:27:31.525Z,58.91
2016-04-12T06:28:14.465Z,59.16
2016-04-12T06:28:57.438Z,59.19
2016-04-12T06:29:40.377Z,59.09
2016-04-12T06:30:23.346Z,58.87
2016-04-12T06:31:06.286Z,58.91
2016-04-12T06:31:49.242Z,59.09
2016-04-12T06:32:32.211Z,59.16
2016-04-12T06:33:15.166Z,59.19
2016-04-12T06:33:57.966Z,59.28
2016-04-12T06:34:40.907Z,59.45
2016-04-12T06:35:23.860Z,59.28
2016-04-12T06:36:06.847Z,59.09
2016-04-12T06:36:49.818Z,59.38
2016-04-12T06:37:32.771Z,58.91
2016-04-12T06:38:15.743Z,59.38
2016-04-12T06:38:58.730Z,58.43
2016-04-12T06:39:41.671Z,58.62
2016-04-12T06:40:24.639Z,58.62
2016-04-12T06:41:07.579Z,58.72
2016-04-12T06:41:50.612Z,58.33
2016-04-12T06:42:33.581Z,57.67
2016-04-12T06:43:16.553Z,57.48
2016-04-12T06:43:59.493Z,57.95
2016-04-12T06:44:42.652Z,57.79
2016-04-12T06:45:25.606Z,57.89
2016-04-12T06:46:08.404Z,57.03
2016-04-12T06:46:51.407Z,57.41
2016-04-12T06:47:34.814Z,56.55
2016-04-12T06:48:17.785Z,56.74
2016-04-12T06:49:00.741Z,56.65
2016-04-12T06:49:43.697Z,56.46
2016-04-12T06:50:26.650Z,56.65
2016-04-12T06:51:09.622Z,56.46
2016-04-12T06:51:52.578Z,56.36
2016-04-12T06:52:35.546Z,56.55
2016-04-12T06:53:18.533Z,55.79
2016-04-12T06:54:01.473Z,56.07
2016-04-12T06:54:44.429Z,55.6
2016-04-12T06:55:27.398Z,55.98
2016-04-12T06:56:10.339Z,55.5
2016-04-12T06:56:53.278Z,55.79
2016-04-12T06:57:36.247Z,55.69
2016-04-12T06:58:19.219Z,55.79
2016-04-12T06:59:02.174Z,55.6
2016-04-12T06:59:45.130Z,56.07
2016-04-12T07:00:28.067Z,55.88
2016-04-12T07:01:11.038Z,55.6
2016-04-12T07:01:53.994Z,56.26
2016-04-12T07:02:36.963Z,56.46
2016-04-12T07:03:19.919Z,56.36
2016-04-12T07:04:02.719Z,56.93
2016-04-12T07:04:45.596Z,56.65
2016-04-12T07:05:28.549Z,56.36
2016-04-12T07:06:11.490Z,56.46
2016-04-12T07:06:54.461Z,56.65
2016-04-12T07:07:37.399Z,56.65
2016-04-12T07:08:20.370Z,56.93
2016-04-12T07:09:03.326Z,56.46
2016-04-12T07:09:46.298Z,55.69
2016-04-12T07:10:29.251Z,55.98
2016-04-12T07:11:12.206Z,56.07
2016-04-12T07:11:54.990Z,55.98
2016-04-12T07:12:37.959Z,55.41
2016-04-12T07:13:20.915Z,55.88
2016-04-12T07:14:03.902Z,55.6
2016-04-12T07:14:46.857Z,55.6
2016-04-12T07:15:29.811Z,55.6
2016-04-12T07:16:12.782Z,55.21
2016-04-12T07:16:55.738Z,55.05
2016-04-12T07:17:38.676Z,54.96
2016-04-12T07:18:21.662Z,54.77
2016-04-12T07:19:04.665Z,55.34
2016-04-12T07:19:47.450Z,54.29
2016-04-12T07:20:30.418Z,53.91
2016-04-12T07:21:13.374Z,53.62
2016-04-12T07:21:56.330Z,54
2016-04-12T07:22:39.283Z,54
2016-04-12T07:23:22.270Z,54.1
2016-04-12T07:24:05.210Z,54.1
2016-04-12T07:24:48.166Z,53.62
2016-04-12T07:25:31.119Z,54
2016-04-12T07:26:14.091Z,54
2016-04-12T07:26:57.062Z,53.53
2016-04-12T07:27:40.127Z,53.53
2016-04-12T07:28:23.080Z,53.33
2016-04-12T07:29:06.036Z,53.55
2016-04-12T07:29:49.008Z,53.55
2016-04-12T07:30:31.977Z,53.17
2016-04-12T07:31:14.775Z,53.65
2016-04-12T07:31:57.763Z,53.27
2016-04-12T07:32:40.703Z,52.59
2016-04-12T07:33:23.688Z,52.12
2016-04-12T07:34:06.644Z,52.34
2016-04-12T07:34:49.630Z,51.83
2016-04-12T07:35:32.568Z,52.24
2016-04-12T07:36:15.523Z,51.95
2016-04-12T07:36:58.480Z,51.86
2016-04-12T07:37:41.435Z,51.57
2016-04-12T07:38:24.388Z,51.86
2016-04-12T07:39:07.360Z,51.76
2016-04-12T07:39:50.300Z,51.09
2016-04-12T07:40:33.285Z,51
2016-04-12T07:41:16.256Z,51
2016-04-12T07:41:59.199Z,51.09
2016-04-12T07:42:42.219Z,50.81
2016-04-12T07:43:25.172Z,50.74
2016-04-12T07:44:08.192Z,49.98
2016-04-12T07:44:51.195Z,50.55
2016-04-12T07:45:34.148Z,49.78
2016-04-12T07:46:17.184Z,49.4
2016-04-12T07:47:00.185Z,49.49
2016-04-12T07:47:43.174Z,49.21
2016-04-12T07:48:26.112Z,49.3
2016-04-12T07:49:09.084Z,48.44
2016-04-12T07:49:52.058Z,48.95
2016-04-12T07:50:35.042Z,48.28
2016-04-12T07:51:18.015Z,48.09
2016-04-12T07:52:01.050Z,47.13
2016-04-12T07:52:44.012Z,46.94
2016-04-12T07:53:26.981Z,46.67
2016-04-12T07:54:09.942Z,46.1
2016-04-12T07:54:52.920Z,45.81
2016-04-12T07:55:35.889Z,45.36
2016-04-12T07:56:18.882Z,44.59
2016-04-12T07:57:01.828Z,44.21
2016-04-12T07:57:44.787Z,43.73
2016-04-12T07:58:27.740Z,43.76
2016-04-12T07:59:10.698Z,43.76
2016-04-12T07:59:53.687Z,43.08
2016-04-12T08:00:36.640Z,42.44
2016-04-12T08:01:19.613Z,41.38
2016-04-12T08:02:02.571Z,41.31
2016-04-12T08:02:45.560Z,41.31
2016-04-12T08:03:28.544Z,41.11
2016-04-12T08:04:11.501Z,39.89
2016-04-12T08:04:54.473Z,39.31
2016-04-12T08:05:37.442Z,39.22
2016-04-12T08:06:20.413Z,39.03
2016-04-12T08:07:03.386Z,38.56
2016-04-12T08:07:46.358Z,38.74
2016-04-12T08:08:29.316Z,38.74
2016-04-12T08:09:12.272Z,39.03
2016-04-12T08:09:55.243Z,39.31
2016-04-12T08:10:38.227Z,39.12
2016-04-12T08:11:21.200Z,39.41
2016-04-12T08:12:04.156Z,39.41
2016-04-12T08:12:47.127Z,39.31
2016-04-12T08:13:30.080Z,39.41
2016-04-12T08:14:13.056Z,39.41
2016-04-12T08:14:56.013Z,39.7
2016-04-12T08:15:38.981Z,39.33
2016-04-12T08:16:21.937Z,39.31
2016-04-12T08:17:04.909Z,39.5
2016-04-12T08:17:47.864Z,39.89
2016-04-12T08:18:30.817Z,39.7
2016-04-12T08:19:13.773Z,40.16
2016-04-12T08:19:56.745Z,40.16
2016-04-12T08:20:39.714Z,40.54
2016-04-12T08:21:22.669Z,39.87
2016-04-12T08:22:05.625Z,39.7
2016-04-12T08:22:48.627Z,39.6
2016-04-12T08:23:31.596Z,39.89
2016-04-12T08:24:14.569Z,39.6
2016-04-12T08:24:57.524Z,39.12
2016-04-12T08:25:40.493Z,38.93
2016-04-12T08:26:23.463Z,38.85
2016-04-12T08:27:06.451Z,38.85
2016-04-12T08:27:49.423Z,38.66
2016-04-12T08:28:32.360Z,39.33
2016-04-12T08:29:15.332Z,38.78
2016-04-12T08:29:58.288Z,37.72
2016-04-12T08:30:41.241Z,37.16
2016-04-12T08:31:24.212Z,36.49
2016-04-12T08:32:07.184Z,36.68
2016-04-12T08:32:50.139Z,36.7
2016-04-12T08:33:33.107Z,35.83
2016-04-12T08:34:16.064Z,34.89
2016-04-12T08:34:59.035Z,34.31
2016-04-12T08:35:41.988Z,34.31
2016-04-12T08:36:24.976Z,33.75
2016-04-12T08:37:07.931Z,33.75
2016-04-12T08:37:50.903Z,32.89
2016-04-12T08:38:33.871Z,33.36
2016-04-12T08:39:16.859Z,33.64
2016-04-12T08:39:59.831Z,34.03
2016-04-12T08:40:42.801Z,34.12
2016-04-12T08:41:25.739Z,33.45
2016-04-12T08:42:08.726Z,32.98
2016-04-12T08:42:51.682Z,32.6
2016-04-12T08:43:34.667Z,32.23
2016-04-12T08:44:17.606Z,31.75
2016-04-12T08:45:00.578Z,31.37
2016-04-12T08:45:43.534Z,31.18
2016-04-12T08:46:26.347Z,31.46
2016-04-12T08:47:09.317Z,31.57
2016-04-12T08:47:52.273Z,31.29
2016-04-12T08:48:35.258Z,31.29
2016-04-12T08:49:18.214Z,31.19
2016-04-12T08:50:01.185Z,30.53
2016-04-12T08:50:44.172Z,29.86
2016-04-12T08:51:27.156Z,29.29
2016-04-12T08:52:10.128Z,29.29
2016-04-12T08:52:53.083Z,29.29
2016-04-12T08:53:36.068Z,28.53
2016-04-12T08:54:19.039Z,27.87
2016-04-12T08:55:02.058Z,27.78
2016-04-12T08:55:45.014Z,28.07
2016-04-12T08:56:27.999Z,27.78
2016-04-12T08:57:11.188Z,27.97
2016-04-12T08:57:54.144Z,27.86
2016-04-12T08:58:37.113Z,28.15
2016-04-12T08:59:20.069Z,28.15
2016-04-12T09:00:03.040Z,28.25
2016-04-12T09:00:46.027Z,28.44
2016-04-12T09:01:29.012Z,28.45
2016-04-12T09:02:11.999Z,27.49
2016-04-12T09:02:54.970Z,27.59
2016-04-12T09:03:37.782Z,27.68
2016-04-12T09:04:20.738Z,27.86
2016-04-12T09:05:03.725Z,28.53
2016-04-12T09:05:46.696Z,28.52
2016-04-12T09:06:29.665Z,29
2016-04-12T09:07:12.621Z,28.63
2016-04-12T09:07:55.577Z,28.73
2016-04-12T09:08:38.702Z,28.07
2016-04-12T09:09:21.694Z,26.82
2016-04-12T09:10:04.650Z,26.15
2016-04-12T09:10:47.622Z,25.76
2016-04-12T09:11:30.606Z,26.34
2016-04-12T09:12:13.562Z,26.06
2016-04-12T09:12:56.533Z,26.06
2016-04-12T09:13:39.502Z,26.17
2016-04-12T09:14:22.489Z,25.78
2016-04-12T09:15:05.460Z,25.68
2016-04-12T09:15:48.431Z,25.01